Time;durP1;ratioP1;P1;durP2;ratioP2;P2;SDS_P1;SDS_P2;PMS_P1;PMS_P2;Temp;Humidity;BMP_temperature;BMP_pressure;BME280_temperature;BME280_humidity;BME280_pressure;Samples;Min_cycle;Max_cycle;Signal;HPM_P1;HPM_P2
2021/10/21 00:01:00;;;;;;;45.45;30.58;;;;;;;;;;5050098;28;20029;-70
2021/10/21 00:03:26;;;;;;;45.65;31.60;;;;;;;;;;5050337;28;20047;-69
2021/10/21 00:05:52;;;;;;;47.13;30.90;;;;;;;;;;5052195;28;20029;-70
2021/10/21 00:08:18;;;;;;;45.15;30.58;;;;;;;;;;5052518;28;20028;-71
2021/10/21 00:10:46;;;;;;;44.80;30.20;;;;;;;;;;5049952;28;20029;-71
2021/10/21 00:13:13;;;;;;;46.25;30.73;;;;;;;;;;5049748;28;20037;-70
2021/10/21 00:15:39;;;;;;;41.38;28.95;;;;;;;;;;5050247;28;20025;-71
2021/10/21 00:18:05;;;;;;;41.97;29.20;;;;;;;;;;5050483;28;20033;-70
2021/10/21 00:20:31;;;;;;;42.47;30.45;;;;;;;;;;5049236;28;20032;-70
2021/10/21 00:22:57;;;;;;;40.55;27.40;;;;;;;;;;5051194;28;20385;-71
2021/10/21 00:25:23;;;;;;;40.90;27.50;;;;;;;;;;5049497;28;20025;-71
2021/10/21 00:27:49;;;;;;;176.70;28.40;;;;;;;;;;5049810;28;20021;-70
2021/10/21 00:30:15;;;;;;;48.83;27.80;;;;;;;;;;5049933;28;20432;-71
2021/10/21 00:32:42;;;;;;;42.22;28.10;;;;;;;;;;5051776;28;20072;-70
2021/10/21 00:35:09;;;;;;;47.50;30.02;;;;;;;;;;5050954;28;20039;-70
2021/10/21 00:37:35;;;;;;;43.30;29.85;;;;;;;;;;5049395;28;20029;-70
2021/10/21 00:40:01;;;;;;;44.42;31.25;;;;;;;;;;5049620;28;20556;-71
2021/10/21 00:42:27;;;;;;;49.83;30.88;;;;;;;;;;5049061;28;20070;-68
2021/10/21 00:44:53;;;;;;;44.05;30.35;;;;;;;;;;5051412;28;20037;-70
2021/10/21 00:47:20;;;;;;;41.17;28.10;;;;;;;;;;5051916;28;20029;-69
2021/10/21 00:49:46;;;;;;;44.60;30.58;;;;;;;;;;5049255;28;20056;-69
2021/10/21 00:52:12;;;;;;;38.65;27.15;;;;;;;;;;5049984;28;20472;-67
2021/10/21 00:54:38;;;;;;;33.42;25.08;;;;;;;;;;5049280;28;20376;-68
2021/10/21 00:57:06;;;;;;;106.75;28.38;;;;;;;;;;5049521;28;20037;-67
2021/10/21 00:59:33;;;;;;;41.75;28.52;;;;;;;;;;5049230;28;20051;-67
2021/10/21 01:01:59;;;;;;;43.27;28.97;;;;;;;;;;5049077;28;20017;-69
2021/10/21 01:04:25;;;;;;;54.65;29.02;;;;;;;;;;5049565;28;20028;-67
2021/10/21 01:06:51;;;;;;;41.85;29.13;;;;;;;;;;5049681;28;20021;-68
2021/10/21 01:09:18;;;;;;;38.35;27.73;;;;;;;;;;5049579;28;20076;-68
2021/10/21 01:11:44;;;;;;;38.92;27.77;;;;;;;;;;5051373;28;20025;-68
2021/10/21 01:14:11;;;;;;;34.13;25.38;;;;;;;;;;5050897;28;20032;-68
2021/10/21 01:16:40;;;;;;;359.65;29.27;;;;;;;;;;5049491;28;20033;-68
2021/10/21 01:19:21;;;;;;;64.18;26.70;;;;;;;;;;5049550;28;20028;-68
2021/10/21 01:21:48;;;;;;;49.00;31.17;;;;;;;;;;5048843;28;20049;-68
2021/10/21 01:24:15;;;;;;;41.33;29.15;;;;;;;;;;5048878;28;20060;-68
2021/10/21 01:26:48;;;;;;;44.40;30.30;;;;;;;;;;5051888;28;20417;-68
2021/10/21 01:29:15;;;;;;;43.67;30.48;;;;;;;;;;5050651;28;20031;-68
2021/10/21 01:31:41;;;;;;;44.33;31.08;;;;;;;;;;5048428;28;20033;-68
2021/10/21 01:34:08;;;;;;;48.63;32.30;;;;;;;;;;5049040;28;20145;-68
2021/10/21 01:36:34;;;;;;;42.05;30.00;;;;;;;;;;5048650;28;20033;-68
2021/10/21 01:39:00;;;;;;;42.80;30.05;;;;;;;;;;5049543;28;20017;-68
2021/10/21 01:41:26;;;;;;;36.85;26.85;;;;;;;;;;5052349;28;20442;-68
2021/10/21 01:43:52;;;;;;;36.72;26.42;;;;;;;;;;5048646;28;20032;-68
2021/10/21 01:46:20;;;;;;;34.97;24.95;;;;;;;;;;5048572;28;20072;-68
2021/10/21 01:48:46;;;;;;;31.10;23.17;;;;;;;;;;5048923;28;20096;-68
2021/10/21 01:51:12;;;;;;;36.35;25.02;;;;;;;;;;5048862;28;20513;-68
2021/10/21 01:53:38;;;;;;;34.42;25.08;;;;;;;;;;5051494;28;20298;-68
2021/10/21 01:56:04;;;;;;;36.70;26.58;;;;;;;;;;5049484;28;20044;-68
2021/10/21 01:58:30;;;;;;;39.40;26.67;;;;;;;;;;5048549;28;20021;-68
2021/10/21 02:00:56;;;;;;;37.08;25.58;;;;;;;;;;5048447;28;20025;-68
2021/10/21 02:03:22;;;;;;;32.08;23.48;;;;;;;;;;5047858;28;20052;-68
2021/10/21 02:05:48;;;;;;;32.83;24.23;;;;;;;;;;5050592;28;20112;-68
2021/10/21 02:08:14;;;;;;;36.05;24.70;;;;;;;;;;5049998;28;20024;-68
2021/10/21 02:10:41;;;;;;;38.47;25.90;;;;;;;;;;5048293;28;20028;-68
2021/10/21 02:13:07;;;;;;;37.10;24.48;;;;;;;;;;5048535;28;20491;-68
2021/10/21 02:15:33;;;;;;;32.15;22.98;;;;;;;;;;5047944;28;20069;-68
2021/10/21 02:17:59;;;;;;;258.40;27.90;;;;;;;;;;5048737;28;20017;-68
2021/10/21 02:20:25;;;;;;;107.70;28.52;;;;;;;;;;5051004;28;20491;-68
2021/10/21 02:22:51;;;;;;;38.95;27.25;;;;;;;;;;5048497;28;20075;-68
2021/10/21 02:25:17;;;;;;;36.85;26.52;;;;;;;;;;5048373;28;20029;-68
2021/10/21 02:27:43;;;;;;;40.90;27.80;;;;;;;;;;5048135;28;20037;-68
2021/10/21 02:30:10;;;;;;;38.22;26.80;;;;;;;;;;5048019;28;20034;-68
2021/10/21 02:32:36;;;;;;;41.42;26.67;;;;;;;;;;5051455;28;20045;-68
2021/10/21 02:35:03;;;;;;;36.20;25.50;;;;;;;;;;5048412;28;20095;-68
2021/10/21 02:37:29;;;;;;;76.10;26.17;;;;;;;;;;5048226;28;20032;-68
2021/10/21 02:39:55;;;;;;;35.65;23.48;;;;;;;;;;5047658;28;20036;-67
2021/10/21 02:42:21;;;;;;;77.00;26.67;;;;;;;;;;5047940;28;20353;-67
2021/10/21 02:44:47;;;;;;;46.17;25.70;;;;;;;;;;5048796;28;20025;-67
2021/10/21 02:47:13;;;;;;;36.33;26.63;;;;;;;;;;5051384;28;20436;-67
2021/10/21 02:49:39;;;;;;;45.53;28.92;;;;;;;;;;5047554;28;20025;-67
2021/10/21 02:52:05;;;;;;;39.60;27.20;;;;;;;;;;5046584;28;20156;-68
2021/10/21 02:54:31;;;;;;;42.42;27.73;;;;;;;;;;5048159;28;20366;-67
2021/10/21 02:56:58;;;;;;;40.72;27.17;;;;;;;;;;5047588;28;20098;-68
2021/10/21 02:59:24;;;;;;;40.50;26.52;;;;;;;;;;5050608;28;20017;-67
2021/10/21 03:01:50;;;;;;;45.42;28.10;;;;;;;;;;5047636;28;20384;-67
2021/10/21 03:04:16;;;;;;;42.85;27.38;;;;;;;;;;5047533;28;20029;-67
2021/10/21 03:06:42;;;;;;;39.53;26.48;;;;;;;;;;5047833;28;20032;-67
2021/10/21 03:09:08;;;;;;;41.15;25.90;;;;;;;;;;5048103;28;20032;-67
2021/10/21 03:11:34;;;;;;;38.88;25.88;;;;;;;;;;5050819;28;20033;-67
2021/10/21 03:14:00;;;;;;;39.33;25.10;;;;;;;;;;5048799;28;20032;-66
2021/10/21 03:16:29;;;;;;;38.65;24.50;;;;;;;;;;5051829;28;20036;-66
2021/10/21 03:18:56;;;;;;;38.33;23.90;;;;;;;;;;5051005;28;20029;-66
2021/10/21 03:21:22;;;;;;;30.52;21.52;;;;;;;;;;5051640;28;20489;-66
2021/10/21 03:23:48;;;;;;;38.83;24.08;;;;;;;;;;5054247;28;20048;-66
2021/10/21 03:26:14;;;;;;;33.47;23.67;;;;;;;;;;5052557;28;20021;-66
2021/10/21 03:28:40;;;;;;;35.05;22.63;;;;;;;;;;5051627;28;20386;-66
2021/10/21 03:31:06;;;;;;;36.10;23.50;;;;;;;;;;5052902;28;20036;-66
2021/10/21 03:33:32;;;;;;;32.50;23.52;;;;;;;;;;5052721;28;20512;-66
2021/10/21 03:35:59;;;;;;;32.88;21.98;;;;;;;;;;5053012;28;20029;-66
2021/10/21 03:38:25;;;;;;;32.28;23.08;;;;;;;;;;5054224;28;20100;-66
2021/10/21 03:40:51;;;;;;;37.08;24.90;;;;;;;;;;5052342;28;20476;-66
2021/10/21 03:43:18;;;;;;;41.38;24.42;;;;;;;;;;5051235;28;20029;-66
2021/10/21 03:45:44;;;;;;;42.00;27.70;;;;;;;;;;5050911;28;20114;-66
2021/10/21 03:48:10;;;;;;;42.78;27.95;;;;;;;;;;5049646;28;20192;-66
2021/10/21 03:50:36;;;;;;;42.08;26.60;;;;;;;;;;5054374;28;20025;-66
2021/10/21 03:53:02;;;;;;;41.67;26.90;;;;;;;;;;5051783;28;20082;-66
2021/10/21 03:55:28;;;;;;;41.58;26.23;;;;;;;;;;5051074;28;20120;-66
2021/10/21 03:57:54;;;;;;;42.60;26.67;;;;;;;;;;5050453;28;20180;-66
2021/10/21 04:00:20;;;;;;;47.05;28.58;;;;;;;;;;5050854;28;20022;-66
2021/10/21 04:02:46;;;;;;;48.85;28.25;;;;;;;;;;5053259;28;20534;-66
2021/10/21 04:05:12;;;;;;;58.42;30.90;;;;;;;;;;5050921;28;20200;-66
2021/10/21 04:07:38;;;;;;;64.43;33.53;;;;;;;;;;5050813;28;20433;-66
2021/10/21 04:10:05;;;;;;;58.20;31.25;;;;;;;;;;5050482;28;20032;-66
2021/10/21 04:12:31;;;;;;;67.95;35.22;;;;;;;;;;5050688;28;20052;-66
2021/10/21 04:14:58;;;;;;;69.55;37.25;;;;;;;;;;5051706;28;20064;-66
2021/10/21 04:17:24;;;;;;;71.88;37.90;;;;;;;;;;5054129;28;20053;-66
2021/10/21 04:19:50;;;;;;;74.13;38.58;;;;;;;;;;5050283;28;20460;-66
2021/10/21 04:22:16;;;;;;;78.15;40.67;;;;;;;;;;5050629;28;20033;-66
2021/10/21 04:24:42;;;;;;;73.97;39.67;;;;;;;;;;5050472;28;20389;-66
2021/10/21 04:27:08;;;;;;;73.43;39.67;;;;;;;;;;5049459;28;20430;-66
2021/10/21 04:29:34;;;;;;;73.97;39.03;;;;;;;;;;5054175;28;20096;-66
2021/10/21 04:32:00;;;;;;;65.28;35.25;;;;;;;;;;5050276;28;20029;-66
2021/10/21 04:34:26;;;;;;;74.30;35.83;;;;;;;;;;5050242;28;20044;-66
2021/10/21 04:36:52;;;;;;;62.08;35.40;;;;;;;;;;5050071;28;20037;-66
2021/10/21 04:39:18;;;;;;;70.32;36.40;;;;;;;;;;5050378;28;20022;-67
2021/10/21 04:41:44;;;;;;;61.05;33.40;;;;;;;;;;5051841;28;20029;-67
2021/10/21 04:44:10;;;;;;;58.35;33.85;;;;;;;;;;5050261;28;20052;-66
2021/10/21 04:46:36;;;;;;;53.92;31.80;;;;;;;;;;5049813;28;20087;-66
2021/10/21 04:49:02;;;;;;;59.20;32.70;;;;;;;;;;5050101;28;20029;-67
2021/10/21 04:51:28;;;;;;;58.92;33.05;;;;;;;;;;5049824;28;20033;-67
2021/10/21 04:53:54;;;;;;;50.10;30.63;;;;;;;;;;5050760;28;20029;-67
2021/10/21 04:56:20;;;;;;;48.30;30.38;;;;;;;;;;5052144;28;20396;-66
2021/10/21 04:58:46;;;;;;;51.78;30.30;;;;;;;;;;5049855;28;20099;-64
2021/10/21 05:01:12;;;;;;;48.30;28.88;;;;;;;;;;5049343;28;20469;-63
2021/10/21 05:03:38;;;;;;;53.08;30.25;;;;;;;;;;5049594;28;20017;-65
2021/10/21 05:06:04;;;;;;;48.58;31.48;;;;;;;;;;5050111;28;20472;-66
2021/10/21 05:08:30;;;;;;;51.53;31.20;;;;;;;;;;5053546;28;20063;-65
2021/10/21 05:10:56;;;;;;;59.60;32.53;;;;;;;;;;5049410;28;20025;-65
2021/10/21 05:13:22;;;;;;;63.80;34.20;;;;;;;;;;5049152;28;20040;-65
2021/10/21 05:15:48;;;;;;;60.70;32.58;;;;;;;;;;5049120;28;20080;-65
2021/10/21 05:18:15;;;;;;;70.70;35.13;;;;;;;;;;5049722;28;20033;-65
2021/10/21 05:20:41;;;;;;;72.57;38.07;;;;;;;;;;5052186;28;20487;-65
2021/10/21 05:23:07;;;;;;;68.40;35.45;;;;;;;;;;5051228;28;20282;-65
2021/10/21 05:25:33;;;;;;;68.47;35.53;;;;;;;;;;5049508;28;20094;-65
2021/10/21 05:27:59;;;;;;;58.53;32.88;;;;;;;;;;5049173;28;20025;-66
2021/10/21 05:30:26;;;;;;;47.00;29.98;;;;;;;;;;5048887;28;20516;-65
2021/10/21 05:32:52;;;;;;;53.33;29.63;;;;;;;;;;5050421;28;20040;-65
2021/10/21 05:35:18;;;;;;;47.28;28.48;;;;;;;;;;5052287;28;20033;-65
2021/10/21 05:37:44;;;;;;;48.67;30.13;;;;;;;;;;5047828;28;20025;-65
2021/10/21 05:40:10;;;;;;;47.28;29.65;;;;;;;;;;5049231;28;20435;-65
2021/10/21 05:42:36;;;;;;;50.88;31.02;;;;;;;;;;5048973;28;20028;-65
2021/10/21 05:45:02;;;;;;;60.85;31.95;;;;;;;;;;5048600;28;20033;-65
2021/10/21 05:47:28;;;;;;;60.40;34.92;;;;;;;;;;5051905;28;20067;-65
2021/10/21 05:49:54;;;;;;;63.35;34.70;;;;;;;;;;5048878;28;20048;-65
2021/10/21 05:52:24;;;;;;;60.58;35.55;;;;;;;;;;5048584;28;20179;-65
2021/10/21 05:54:50;;;;;;;65.88;35.90;;;;;;;;;;5048615;28;20025;-65
2021/10/21 05:57:16;;;;;;;56.92;33.42;;;;;;;;;;5048274;28;20037;-65
2021/10/21 05:59:42;;;;;;;50.10;29.73;;;;;;;;;;5051095;28;20119;-65
2021/10/21 06:02:08;;;;;;;52.35;29.55;;;;;;;;;;5051050;28;20029;-65
2021/10/21 06:04:34;;;;;;;54.80;31.20;;;;;;;;;;5048757;28;20021;-65
2021/10/21 06:07:00;;;;;;;73.03;32.60;;;;;;;;;;5048546;28;20028;-65
2021/10/21 06:09:26;;;;;;;68.22;32.70;;;;;;;;;;5048106;28;20048;-65
2021/10/21 06:11:52;;;;;;;68.78;34.80;;;;;;;;;;5049878;28;20025;-65
2021/10/21 06:14:18;;;;;;;47.25;29.48;;;;;;;;;;5050232;28;20029;-65
2021/10/21 06:16:47;;;;;;;39.72;26.33;;;;;;;;;;5047925;28;20082;-65
2021/10/21 06:19:14;;;;;;;35.35;22.05;;;;;;;;;;5048543;28;20035;-65
2021/10/21 06:21:40;;;;;;;44.65;28.33;;;;;;;;;;5048161;28;20025;-65
2021/10/21 06:24:06;;;;;;;49.75;29.33;;;;;;;;;;5048587;28;20025;-65
2021/10/21 06:26:33;;;;;;;61.80;34.08;;;;;;;;;;5051917;28;20033;-65
2021/10/21 06:28:59;;;;;;;66.40;34.53;;;;;;;;;;5047712;28;20013;-65
2021/10/21 06:31:25;;;;;;;74.40;35.20;;;;;;;;;;5048303;28;20491;-65
2021/10/21 06:33:51;;;;;;;83.30;35.67;;;;;;;;;;5047720;28;20045;-65
2021/10/21 06:36:18;;;;;;;75.50;34.67;;;;;;;;;;5048179;28;20057;-65
2021/10/21 06:38:44;;;;;;;72.28;36.40;;;;;;;;;;5050750;28;20507;-65
2021/10/21 06:41:11;;;;;;;66.55;34.35;;;;;;;;;;5049041;28;20056;-65
2021/10/21 06:43:37;;;;;;;66.95;35.40;;;;;;;;;;5047673;28;20029;-65
2021/10/21 06:46:06;;;;;;;72.57;36.28;;;;;;;;;;5040697;28;20047;-65
2021/10/21 06:48:32;;;;;;;68.05;36.03;;;;;;;;;;5040542;28;20021;-65
2021/10/21 06:50:58;;;;;;;54.85;30.73;;;;;;;;;;5048951;28;20037;-65
2021/10/21 06:53:24;;;;;;;57.00;33.60;;;;;;;;;;5050906;28;20028;-65
2021/10/21 06:55:50;;;;;;;53.97;29.67;;;;;;;;;;5055073;28;20036;-65
2021/10/21 06:58:16;;;;;;;54.67;32.67;;;;;;;;;;5053661;28;20029;-65
2021/10/21 07:00:42;;;;;;;53.33;31.65;;;;;;;;;;5047546;28;20051;-65
2021/10/21 07:03:09;;;;;;;54.60;32.40;;;;;;;;;;5047683;28;20021;-65
2021/10/21 07:05:39;;;;;;;57.15;32.88;;;;;;;;;;5056433;28;20145;-65
2021/10/21 07:08:14;;;;;;;61.08;34.30;;;;;;;;;;5048478;28;20017;-65
2021/10/21 07:10:40;;;;;;;62.15;34.67;;;;;;;;;;5046566;28;20449;-65
2021/10/21 07:13:07;;;;;;;64.47;34.60;;;;;;;;;;5046455;28;20021;-65
2021/10/21 07:15:33;;;;;;;66.88;32.47;;;;;;;;;;5049557;28;20112;-65
2021/10/21 07:18:00;;;;;;;62.38;33.40;;;;;;;;;;5048191;28;20032;-65
2021/10/21 07:20:26;;;;;;;52.60;31.20;;;;;;;;;;5049931;28;20035;-64
2021/10/21 07:22:52;;;;;;;62.90;30.83;;;;;;;;;;5047531;28;20079;-65
2021/10/21 07:25:18;;;;;;;54.15;29.95;;;;;;;;;;5046476;28;20033;-65
2021/10/21 07:27:44;;;;;;;60.03;35.58;;;;;;;;;;5047842;28;20021;-64
2021/10/21 07:30:11;;;;;;;52.38;32.63;;;;;;;;;;5048893;28;20036;-64
2021/10/21 07:32:38;;;;;;;62.88;40.72;;;;;;;;;;5050722;28;20531;-64
2021/10/21 07:35:05;;;;;;;64.85;39.63;;;;;;;;;;5048414;28;20048;-64
2021/10/21 07:37:31;;;;;;;69.32;45.60;;;;;;;;;;5047055;28;20066;-65
2021/10/21 07:39:57;;;;;;;92.15;53.60;;;;;;;;;;5047497;28;20060;-64
2021/10/21 07:42:23;;;;;;;90.78;51.53;;;;;;;;;;5047570;28;20029;-64
2021/10/21 07:44:49;;;;;;;78.15;46.05;;;;;;;;;;5049745;28;20476;-64
2021/10/21 07:47:15;;;;;;;80.22;44.28;;;;;;;;;;5049027;28;20037;-64
2021/10/21 07:49:41;;;;;;;78.20;44.83;;;;;;;;;;5047163;28;20027;-64
2021/10/21 07:52:07;;;;;;;77.45;42.78;;;;;;;;;;5047037;28;20506;-64
2021/10/21 07:54:33;;;;;;;65.50;37.92;;;;;;;;;;5047300;28;20366;-65
2021/10/21 07:57:00;;;;;;;63.90;37.42;;;;;;;;;;5048228;28;20087;-65
2021/10/21 07:59:27;;;;;;;62.10;35.10;;;;;;;;;;5049653;28;20052;-65
2021/10/21 08:01:54;;;;;;;60.72;35.75;;;;;;;;;;5049153;28;20029;-65
2021/10/21 08:04:20;;;;;;;52.63;34.20;;;;;;;;;;5050913;28;20392;-65
2021/10/21 08:06:48;;;;;;;52.72;33.65;;;;;;;;;;5050668;28;20028;-64
2021/10/21 08:09:14;;;;;;;54.83;35.25;;;;;;;;;;5050760;28;20373;-64
2021/10/21 08:11:40;;;;;;;57.33;36.95;;;;;;;;;;5053047;28;20108;-64
2021/10/21 08:14:07;;;;;;;58.92;37.83;;;;;;;;;;5051591;28;20033;-64
2021/10/21 08:16:33;;;;;;;62.95;37.95;;;;;;;;;;5050660;28;20056;-64
2021/10/21 08:18:59;;;;;;;57.50;35.53;;;;;;;;;;5050827;28;20025;-64
2021/10/21 08:21:25;;;;;;;53.22;32.92;;;;;;;;;;5050732;28;20049;-64
2021/10/21 08:23:55;;;;;;;49.97;32.95;;;;;;;;;;5051765;28;20374;-65
2021/10/21 08:26:21;;;;;;;53.25;31.83;;;;;;;;;;5052775;28;20032;-65
2021/10/21 08:28:48;;;;;;;48.63;31.80;;;;;;;;;;5050494;28;20448;-64
2021/10/21 08:31:15;;;;;;;47.83;30.02;;;;;;;;;;5051790;28;20067;-65
2021/10/21 08:33:41;;;;;;;49.10;31.00;;;;;;;;;;5049874;28;20071;-64
2021/10/21 08:36:11;;;;;;;51.88;32.83;;;;;;;;;;5051267;28;20511;-64
2021/10/21 08:38:37;;;;;;;47.67;32.15;;;;;;;;;;5053306;28;20511;-64
2021/10/21 08:41:03;;;;;;;46.17;30.92;;;;;;;;;;5051082;28;20032;-64
2021/10/21 08:43:29;;;;;;;50.97;33.05;;;;;;;;;;5050377;28;20025;-64
2021/10/21 08:45:56;;;;;;;50.85;31.80;;;;;;;;;;5050307;28;20031;-64
2021/10/21 08:48:23;;;;;;;42.47;29.67;;;;;;;;;;5051028;28;20032;-64
2021/10/21 08:50:49;;;;;;;46.13;30.48;;;;;;;;;;5052574;28;20075;-68
2021/10/21 08:53:15;;;;;;;44.03;29.73;;;;;;;;;;5051408;28;20057;-65
2021/10/21 08:55:41;;;;;;;47.63;32.92;;;;;;;;;;5048421;28;20067;-66
2021/10/21 08:58:07;;;;;;;50.03;32.15;;;;;;;;;;5048517;28;20036;-66
2021/10/21 09:00:35;;;;;;;52.85;33.40;;;;;;;;;;5049843;28;20040;-66
2021/10/21 09:03:03;;;;;;;51.88;34.22;;;;;;;;;;5050672;28;20060;-66
2021/10/21 09:05:41;;;;;;;49.80;32.33;;;;;;;;;;5053375;28;20083;-66
2021/10/21 09:08:07;;;;;;;53.40;32.95;;;;;;;;;;5051961;28;20599;-66
2021/10/21 09:10:33;;;;;;;53.97;33.78;;;;;;;;;;5051042;28;20029;-65
2021/10/21 09:13:00;;;;;;;57.22;33.72;;;;;;;;;;5049065;28;20123;-65
2021/10/21 09:15:27;;;;;;;55.35;33.45;;;;;;;;;;5049591;28;20060;-66
2021/10/21 09:17:54;;;;;;;54.65;34.47;;;;;;;;;;5051121;28;20033;-66
2021/10/21 09:20:24;;;;;;;46.90;31.75;;;;;;;;;;5051599;28;20077;-66
2021/10/21 09:22:57;;;;;;;43.35;31.10;;;;;;;;;;5049389;28;20028;-65
2021/10/21 09:25:29;;;;;;;41.30;29.42;;;;;;;;;;5048898;28;20500;-65
2021/10/21 09:27:58;;;;;;;40.03;29.13;;;;;;;;;;5049078;28;20423;-65
2021/10/21 09:30:25;;;;;;;43.67;30.85;;;;;;;;;;5049076;28;20025;-66
2021/10/21 09:32:51;;;;;;;45.33;30.67;;;;;;;;;;5051326;28;20114;-65
2021/10/21 09:35:19;;;;;;;38.55;26.92;;;;;;;;;;5050401;28;20025;-66
2021/10/21 09:37:46;;;;;;;;;;;;;;;;;;5049723;28;20384;-64
2021/10/21 09:40:14;;;;;;;37.42;26.98;;;;;;;;;;5047732;28;20427;-65
2021/10/21 09:42:42;;;;;;;37.53;25.63;;;;;;;;;;5048904;28;20025;-66
2021/10/21 09:45:13;;;;;;;34.95;22.45;;;;;;;;;;5049072;28;20035;-66
2021/10/21 09:47:41;;;;;;;36.25;25.80;;;;;;;;;;5051665;28;20456;-66
2021/10/21 09:50:16;;;;;;;33.60;23.45;;;;;;;;;;5051143;28;20097;-65
2021/10/21 09:52:43;;;;;;;25.70;17.95;;;;;;;;;;5048978;28;20496;-66
2021/10/21 09:55:10;;;;;;;28.65;19.98;;;;;;;;;;5048339;28;20079;-66
2021/10/21 09:57:36;;;;;;;28.83;18.08;;;;;;;;;;5048481;28;20028;-66
2021/10/21 10:00:08;;;;;;;26.92;19.35;;;;;;;;;;5049328;28;20025;-66
2021/10/21 10:02:34;;;;;;;30.77;22.00;;;;;;;;;;5048382;28;20108;-66
2021/10/21 10:05:03;;;;;;;29.17;18.52;;;;;;;;;;5048357;28;20140;-66
2021/10/21 10:07:30;;;;;;;29.85;18.92;;;;;;;;;;5048634;28;20021;-66
2021/10/21 10:09:59;;;;;;;25.67;17.20;;;;;;;;;;5048404;28;20086;-65
2021/10/21 10:12:30;;;;;;;25.48;17.58;;;;;;;;;;5048830;28;20018;-66
2021/10/21 10:14:57;;;;;;;29.20;18.60;;;;;;;;;;5050030;28;23113;-66
2021/10/21 10:17:24;;;;;;;25.07;17.37;;;;;;;;;;5050705;28;20031;-66
2021/10/21 10:19:50;;;;;;;22.55;15.55;;;;;;;;;;5048004;28;20677;-66
2021/10/21 10:22:27;;;;;;;26.08;18.67;;;;;;;;;;5048573;28;20037;-65
2021/10/21 10:24:53;;;;;;;39.05;21.67;;;;;;;;;;5047504;28;20419;-66
2021/10/21 10:27:19;;;;;;;28.80;21.45;;;;;;;;;;5048182;28;20037;-66
2021/10/21 10:29:46;;;;;;;30.60;19.23;;;;;;;;;;5050430;28;20366;-66
2021/10/21 10:32:31;;;;;;;29.63;19.73;;;;;;;;;;5048912;28;20029;-66
2021/10/21 10:34:58;;;;;;;28.20;19.27;;;;;;;;;;5047970;28;20115;-66
2021/10/21 10:37:24;;;;;;;30.65;20.45;;;;;;;;;;5048050;28;20439;-66
2021/10/21 10:39:57;;;;;;;28.67;20.10;;;;;;;;;;5047130;28;20074;-66
2021/10/21 10:42:32;;;;;;;29.02;18.85;;;;;;;;;;5047560;28;20160;-66
2021/10/21 10:44:58;;;;;;;26.08;18.42;;;;;;;;;;5049313;28;20021;-66
2021/10/21 10:47:43;;;;;;;31.95;20.85;;;;;;;;;;5051743;28;20044;-66
2021/10/21 10:50:38;;;;;;;26.08;17.90;;;;;;;;;;5050354;28;20032;-66
2021/10/21 10:53:07;;;;;;;26.20;18.08;;;;;;;;;;5048280;28;20029;-66
2021/10/21 10:55:40;;;;;;;25.52;18.55;;;;;;;;;;5046248;28;20033;-67
2021/10/21 10:58:17;;;;;;;26.17;18.45;;;;;;;;;;5047550;28;20399;-66
2021/10/21 11:00:52;;;;;;;28.50;18.90;;;;;;;;;;5047985;28;20025;-67
2021/10/21 11:03:43;;;;;;;27.27;17.13;;;;;;;;;;5047397;28;20026;-66
2021/10/21 11:06:16;;;;;;;30.27;19.33;;;;;;;;;;5032456;28;20044;-66
2021/10/21 11:09:03;;;;;;;27.90;18.85;;;;;;;;;;5049283;28;20112;-66
2021/10/21 11:11:48;;;;;;;26.00;18.35;;;;;;;;;;5049694;28;20071;-67
2021/10/21 11:14:15;;;;;;;29.58;18.40;;;;;;;;;;5050397;28;20450;-66
2021/10/21 11:16:48;;;;;;;26.80;18.95;;;;;;;;;;5047147;28;20119;-66
2021/10/21 11:19:34;;;;;;;28.02;19.20;;;;;;;;;;5047201;28;20131;-67
2021/10/21 11:22:00;;;;;;;28.20;19.13;;;;;;;;;;5047786;28;20029;-66
2021/10/21 11:24:54;;;;;;;30.90;19.45;;;;;;;;;;5048745;28;20076;-67
2021/10/21 11:27:21;;;;;;;34.63;18.63;;;;;;;;;;5034153;28;20025;-67
2021/10/21 11:29:47;;;;;;;29.52;19.55;;;;;;;;;;5050279;28;20385;-66
2021/10/21 11:32:14;;;;;;;27.55;18.85;;;;;;;;;;5048061;28;20033;-67
2021/10/21 11:34:40;;;;;;;29.85;18.35;;;;;;;;;;5047261;28;20025;-66
2021/10/21 11:37:06;;;;;;;28.80;18.58;;;;;;;;;;5051537;28;20455;-67
2021/10/21 11:39:33;;;;;;;22.95;15.85;;;;;;;;;;5051631;28;20025;-66
2021/10/21 11:42:02;;;;;;;27.85;17.67;;;;;;;;;;5051235;28;20075;-67
2021/10/21 11:44:28;;;;;;;27.75;17.55;;;;;;;;;;5054514;28;20594;-67
2021/10/21 11:46:58;;;;;;;25.17;17.50;;;;;;;;;;5050183;28;20025;-66
2021/10/21 11:49:28;;;;;;;27.27;17.77;;;;;;;;;;5049985;28;20524;-66
2021/10/21 11:52:03;;;;;;;28.30;16.55;;;;;;;;;;5046542;28;20029;-67
2021/10/21 11:54:29;;;;;;;30.02;16.52;;;;;;;;;;5049263;28;20024;-64
2021/10/21 11:56:56;;;;;;;26.42;17.65;;;;;;;;;;5052403;28;20119;-65
2021/10/21 11:59:41;;;;;;;29.50;18.23;;;;;;;;;;5052408;28;20021;-65
2021/10/21 12:02:11;;;;;;;27.10;16.77;;;;;;;;;;5061401;28;20047;-66
2021/10/21 12:04:38;;;;;;;25.92;17.70;;;;;;;;;;5053609;28;20025;-67
2021/10/21 12:07:05;;;;;;;24.52;15.98;;;;;;;;;;5050564;28;20052;-66
2021/10/21 12:09:34;;;;;;;26.70;17.23;;;;;;;;;;5050233;28;20028;-66
2021/10/21 12:12:01;;;;;;;28.33;17.92;;;;;;;;;;5053825;28;20493;-67
2021/10/21 12:14:27;;;;;;;27.10;16.98;;;;;;;;;;5052930;28;20032;-66
2021/10/21 12:16:53;;;;;;;30.67;17.98;;;;;;;;;;5050301;28;20049;-67
2021/10/21 12:19:27;;;;;;;30.58;19.38;;;;;;;;;;5050124;28;20036;-67
2021/10/21 12:22:02;;;;;;;33.22;19.35;;;;;;;;;;5053431;28;20046;-65
2021/10/21 12:24:28;;;;;;;28.58;17.90;;;;;;;;;;5050133;28;20031;-67
2021/10/21 12:27:02;;;;;;;29.75;18.35;;;;;;;;;;5051850;28;20112;-66
2021/10/21 12:29:38;;;;;;;29.55;17.88;;;;;;;;;;5053174;28;20009;-66
2021/10/21 12:32:08;;;;;;;30.75;16.85;;;;;;;;;;5057358;28;20032;-67
2021/10/21 12:34:35;;;;;;;26.25;17.15;;;;;;;;;;5053414;28;20156;-67
2021/10/21 12:37:07;;;;;;;30.37;18.37;;;;;;;;;;5050066;28;20068;-65
2021/10/21 12:39:33;;;;;;;27.77;17.95;;;;;;;;;;5049692;28;20480;-66
2021/10/21 12:42:02;;;;;;;27.02;17.52;;;;;;;;;;5053283;28;20025;-65
2021/10/21 12:44:28;;;;;;;29.67;19.80;;;;;;;;;;5052864;28;20109;-66
2021/10/21 12:47:16;;;;;;;29.13;18.33;;;;;;;;;;5048912;28;20029;-66
2021/10/21 12:50:00;;;;;;;29.67;18.42;;;;;;;;;;5049657;28;20079;-66
2021/10/21 12:52:27;;;;;;;30.80;18.50;;;;;;;;;;5052964;28;20028;-65
2021/10/21 12:55:08;;;;;;;29.05;19.13;;;;;;;;;;5049520;28;20072;-66
2021/10/21 12:58:04;;;;;;;29.65;17.42;;;;;;;;;;5049409;28;20033;-65
2021/10/21 13:00:45;;;;;;;28.52;17.95;;;;;;;;;;5036156;28;20033;-66
2021/10/21 13:03:17;;;;;;;28.27;17.75;;;;;;;;;;5046566;28;20032;-65
2021/10/21 13:05:44;;;;;;;26.13;17.70;;;;;;;;;;5048924;28;20021;-65
2021/10/21 13:08:10;;;;;;;31.17;18.42;;;;;;;;;;5050526;28;20059;-66
2021/10/21 13:10:56;;;;;;;30.13;18.27;;;;;;;;;;5050503;28;20039;-66
2021/10/21 13:13:22;;;;;;;25.77;16.73;;;;;;;;;;5051883;28;20060;-65
2021/10/21 13:15:48;;;;;;;31.23;17.65;;;;;;;;;;5048585;28;20446;-66
2021/10/21 13:18:14;;;;;;;23.98;15.60;;;;;;;;;;5049423;28;20382;-66
2021/10/21 13:20:40;;;;;;;24.38;15.70;;;;;;;;;;5053898;28;20059;-66
2021/10/21 13:23:06;;;;;;;25.55;16.10;;;;;;;;;;5053398;28;20033;-65
2021/10/21 13:25:32;;;;;;;28.95;16.25;;;;;;;;;;5048781;28;20037;-65
2021/10/21 13:27:59;;;;;;;24.83;15.75;;;;;;;;;;5048805;28;20037;-65
2021/10/21 13:30:25;;;;;;;25.73;17.35;;;;;;;;;;5048704;28;20477;-65
2021/10/21 13:32:52;;;;;;;26.77;16.50;;;;;;;;;;5061861;28;20056;-66
2021/10/21 13:35:19;;;;;;;25.60;17.52;;;;;;;;;;5050276;28;20021;-66
2021/10/21 13:37:45;;;;;;;26.45;17.20;;;;;;;;;;5048956;28;20025;-65
2021/10/21 13:40:12;;;;;;;24.52;15.25;;;;;;;;;;5048465;28;20503;-66
2021/10/21 13:42:38;;;;;;;24.55;15.52;;;;;;;;;;5051096;28;20033;-66
2021/10/21 13:45:04;;;;;;;24.10;16.13;;;;;;;;;;5032909;28;20017;-65
2021/10/21 13:47:30;;;;;;;25.67;16.02;;;;;;;;;;5047748;28;20477;-65
2021/10/21 13:49:56;;;;;;;23.35;15.55;;;;;;;;;;5048642;28;20032;-65
2021/10/21 13:52:22;;;;;;;22.65;13.48;;;;;;;;;;5051562;28;20025;-65
2021/10/21 13:54:48;;;;;;;23.55;15.60;;;;;;;;;;5048090;28;20438;-66
2021/10/21 13:57:15;;;;;;;26.00;16.40;;;;;;;;;;5047224;28;20404;-66
2021/10/21 13:59:42;;;;;;;25.05;15.75;;;;;;;;;;5049960;28;20377;-67
2021/10/21 14:02:09;;;;;;;25.17;15.85;;;;;;;;;;5058027;28;20609;-66
2021/10/21 14:04:35;;;;;;;23.80;15.38;;;;;;;;;;5051405;28;20416;-67
2021/10/21 14:07:02;;;;;;;25.35;14.93;;;;;;;;;;5048115;28;20021;-66
2021/10/21 14:09:28;;;;;;;23.55;14.52;;;;;;;;;;5050195;28;20079;-67
2021/10/21 14:11:54;;;;;;;25.48;16.17;;;;;;;;;;5051928;28;20028;-67
2021/10/21 14:14:20;;;;;;;24.88;16.52;;;;;;;;;;5050943;28;20017;-67
2021/10/21 14:16:46;;;;;;;28.85;18.17;;;;;;;;;;5048920;28;20033;-67
2021/10/21 14:19:12;;;;;;;22.45;15.90;;;;;;;;;;5049821;28;20064;-67